Time;durP1;ratioP1;P1;durP2;ratioP2;P2;SDS_P1;SDS_P2;PMS_P1;PMS_P2;Temp;Humidity;BMP_temperature;BMP_pressure;BME280_temperature;BME280_humidity;BME280_pressure;Samples;Min_cycle;Max_cycle;Signal;HPM_P1;HPM_P2
2022/10/19 00:01:02;;;;;;;4.70;1.42;;;12.60;99.90;;;;;;4985746;28;20027;-75
2022/10/19 00:03:28;;;;;;;10.82;1.25;;;12.60;99.90;;;;;;4984501;28;20042;-76
2022/10/19 00:05:55;;;;;;;11.93;1.50;;;12.60;99.90;;;;;;4968549;28;20031;-75
2022/10/19 00:08:25;;;;;;;4.68;1.23;;;12.60;99.90;;;;;;4982389;28;20261;-74
2022/10/19 00:10:51;;;;;;;5.60;1.33;;;12.60;99.90;;;;;;4983834;28;20038;-76
2022/10/19 00:13:17;;;;;;;6.88;1.40;;;12.60;99.90;;;;;;4949638;28;20060;-75
2022/10/19 00:15:44;;;;;;;10.60;1.85;;;12.60;99.90;;;;;;4970306;28;20026;-75
2022/10/19 00:18:10;;;;;;;10.88;1.63;;;12.70;99.90;;;;;;4992001;28;20434;-79
2022/10/19 00:20:36;;;;;;;5.53;1.02;;;12.70;99.90;;;;;;4987774;28;20487;-75
2022/10/19 00:23:03;;;;;;;8.50;1.40;;;12.70;99.90;;;;;;4992885;28;20023;-75
2022/10/19 00:25:30;;;;;;;18.85;2.17;;;12.60;99.90;;;;;;4999638;28;20637;-75
2022/10/19 00:27:56;;;;;;;11.45;1.75;;;12.60;99.90;;;;;;4982574;28;20065;-75
2022/10/19 00:30:23;;;;;;;8.95;1.77;;;12.60;99.90;;;;;;4989638;28;20027;-76
2022/10/19 00:32:49;;;;;;;9.85;1.73;;;12.60;99.90;;;;;;4984429;28;20054;-75
2022/10/19 00:35:14;;;;;;;8.05;1.52;;;12.60;99.90;;;;;;4996701;28;20061;-75
2022/10/19 00:37:41;;;;;;;8.38;1.40;;;12.60;99.90;;;;;;4975668;28;20030;-75
2022/10/19 00:40:08;;;;;;;7.88;1.65;;;12.60;99.90;;;;;;4970561;28;20031;-75
2022/10/19 00:42:33;;;;;;;7.75;1.33;;;12.60;99.90;;;;;;4993754;28;20026;-76
2022/10/19 00:45:06;;;;;;;5.43;1.48;;;12.60;99.90;;;;;;4977799;28;20037;-75
2022/10/19 00:47:33;;;;;;;7.43;1.20;;;12.60;99.90;;;;;;4989879;28;20031;-76
2022/10/19 00:49:59;;;;;;;4.53;1.00;;;12.60;99.90;;;;;;4993646;28;20034;-75
2022/10/19 00:52:27;;;;;;;6.25;0.95;;;12.60;99.90;;;;;;4970736;28;20041;-76
2022/10/19 00:54:56;;;;;;;3.92;0.80;;;12.60;99.90;;;;;;4973455;28;20857;-74
2022/10/19 00:57:25;;;;;;;6.68;1.27;;;12.60;99.90;;;;;;4982951;28;20034;-75
2022/10/19 00:59:51;;;;;;;4.10;0.80;;;12.60;99.90;;;;;;4985426;28;20401;-74
2022/10/19 01:02:18;;;;;;;5.55;1.30;;;12.60;99.90;;;;;;4967692;28;20520;-75
2022/10/19 01:04:48;;;;;;;7.03;1.10;;;12.60;99.90;;;;;;4988623;28;20553;-75
2022/10/19 01:07:15;;;;;;;4.47;0.88;;;12.60;99.90;;;;;;4984098;28;20085;-77
2022/10/19 01:09:40;;;;;;;6.82;1.27;;;12.60;99.90;;;;;;4981114;28;20135;-76
2022/10/19 01:12:20;;;;;;;9.38;1.63;;;12.60;99.90;;;;;;4986235;28;20065;-75
2022/10/19 01:15:11;;;;;;;9.25;1.40;;;12.60;99.90;;;;;;4987797;28;20041;-75
2022/10/19 01:18:03;;;;;;;5.95;1.55;;;12.60;99.90;;;;;;4989139;28;20623;-74
2022/10/19 01:21:08;;;;;;;7.70;1.17;;;12.60;99.90;;;;;;4984144;28;20615;-75
2022/10/19 01:24:20;;;;;;;6.93;0.90;;;12.60;99.90;;;;;;4963624;28;20061;-75
2022/10/19 01:27:19;;;;;;;12.43;1.52;;;12.60;99.90;;;;;;4993787;28;20058;-75
2022/10/19 01:30:08;;;;;;;6.55;0.85;;;12.60;99.90;;;;;;4993689;28;20030;-76
2022/10/19 01:32:38;;;;;;;13.18;1.40;;;12.60;99.90;;;;;;4997698;28;20030;-74
2022/10/19 01:35:44;;;;;;;8.90;1.77;;;12.50;99.90;;;;;;4977666;28;20058;-74
2022/10/19 01:38:17;;;;;;;11.30;2.10;;;12.50;99.90;;;;;;4974665;28;20285;-74
2022/10/19 01:41:00;;;;;;;7.53;1.63;;;12.50;99.90;;;;;;4974121;28;20031;-74
2022/10/19 01:43:36;;;;;;;7.57;1.75;;;12.50;99.90;;;;;;4978327;28;20038;-76
2022/10/19 01:46:12;;;;;;;10.38;1.67;;;12.50;99.90;;;;;;4971476;28;20112;-75
2022/10/19 01:48:44;;;;;;;6.60;1.35;;;12.50;99.90;;;;;;4993706;28;20030;-75
2022/10/19 01:51:17;;;;;;;7.80;1.33;;;12.40;99.90;;;;;;4990008;28;20030;-74
2022/10/19 01:53:47;;;;;;;10.13;1.77;;;12.40;99.90;;;;;;4989739;28;20054;-75
2022/10/19 01:56:16;;;;;;;5.22;1.48;;;12.40;99.90;;;;;;4988114;28;22001;-75
2022/10/19 01:58:43;;;;;;;7.72;1.40;;;12.40;99.90;;;;;;4981636;28;20771;-76
2022/10/19 02:01:11;;;;;;;11.93;1.70;;;12.40;99.90;;;;;;4969661;28;20026;-75
2022/10/19 02:03:39;;;;;;;10.07;1.60;;;12.40;99.90;;;;;;4955307;28;20022;-75
2022/10/19 02:06:07;;;;;;;5.47;1.30;;;12.40;99.90;;;;;;4987485;28;20065;-75
2022/10/19 02:08:51;;;;;;;6.88;1.27;;;12.40;99.90;;;;;;4986943;28;20398;-77
2022/10/19 02:11:20;;;;;;;5.72;0.93;;;12.40;99.90;;;;;;4982886;28;20023;-75
2022/10/19 02:13:53;;;;;;;8.77;2.15;;;12.40;99.90;;;;;;4987797;28;20097;-76
2022/10/19 02:16:26;;;;;;;9.27;1.40;;;12.30;99.90;;;;;;4967306;28;20026;-77
2022/10/19 02:18:54;;;;;;;11.27;1.17;;;12.30;99.90;;;;;;4993495;28;20026;-74
2022/10/19 02:21:20;;;;;;;6.10;1.30;;;12.30;99.90;;;;;;4994879;28;20083;-76
2022/10/19 02:23:45;;;;;;;9.00;1.40;;;12.30;99.90;;;;;;4975297;28;20026;-75
2022/10/19 02:26:11;;;;;;;9.63;1.98;;;12.30;99.90;;;;;;4984504;28;20084;-75
2022/10/19 02:28:37;;;;;;;9.00;1.63;;;12.30;99.90;;;;;;4979516;28;20565;-75
2022/10/19 02:31:05;;;;;;;9.95;1.65;;;12.30;99.90;;;;;;4990405;28;20060;-74
2022/10/19 02:33:32;;;;;;;12.65;1.90;;;12.30;99.90;;;;;;4989567;28;20411;-76
2022/10/19 02:35:58;;;;;;;8.20;1.23;;;12.20;99.90;;;;;;4989097;28;20033;-75
2022/10/19 02:38:26;;;;;;;6.95;1.30;;;12.20;99.90;;;;;;4972361;28;20059;-75
2022/10/19 02:41:28;;;;;;;8.02;1.48;;;12.20;99.90;;;;;;4995660;28;20022;-75
2022/10/19 02:43:59;;;;;;;5.28;1.30;;;12.20;99.90;;;;;;4932463;28;20164;-76
2022/10/19 02:46:48;;;;;;;6.53;1.00;;;12.30;99.90;;;;;;4996962;28;20034;-76
2022/10/19 02:49:15;;;;;;;6.55;1.25;;;12.30;99.90;;;;;;4984667;28;20031;-74
2022/10/19 02:52:03;;;;;;;8.25;1.50;;;12.20;99.90;;;;;;4985045;28;20030;-75
2022/10/19 02:54:33;;;;;;;4.90;1.00;;;12.20;99.90;;;;;;4973281;28;20596;-76
2022/10/19 02:56:58;;;;;;;6.22;1.33;;;12.30;99.90;;;;;;4966332;28;20038;-75
2022/10/19 02:59:24;;;;;;;7.75;1.77;;;12.30;99.90;;;;;;4984895;28;20539;-75
2022/10/19 03:01:51;;;;;;;8.00;1.38;;;12.30;99.90;;;;;;4980456;28;20161;-76
2022/10/19 03:04:18;;;;;;;6.43;1.90;;;12.20;99.90;;;;;;4967973;28;20077;-74
2022/10/19 03:06:45;;;;;;;6.15;1.00;;;12.20;99.90;;;;;;4965805;28;20029;-76
2022/10/19 03:09:10;;;;;;;6.82;1.13;;;12.20;99.90;;;;;;4983220;28;20062;-78
2022/10/19 03:11:36;;;;;;;7.68;1.33;;;12.20;99.90;;;;;;4964961;28;20065;-75
2022/10/19 03:14:02;;;;;;;7.45;1.50;;;12.20;99.90;;;;;;4982215;28;20031;-75
2022/10/19 03:16:28;;;;;;;7.05;1.55;;;12.20;99.90;;;;;;4964596;28;20077;-76
2022/10/19 03:18:53;;;;;;;5.88;1.65;;;12.20;99.90;;;;;;4984356;28;20109;-75
2022/10/19 03:21:20;;;;;;;9.20;1.30;;;12.30;99.90;;;;;;4979829;28;20029;-76
2022/10/19 03:23:46;;;;;;;7.75;1.67;;;12.20;99.90;;;;;;4981461;28;20926;-75
2022/10/19 03:26:15;;;;;;;8.02;1.33;;;12.20;99.90;;;;;;4967797;28;20070;-76
2022/10/19 03:28:42;;;;;;;6.60;1.00;;;12.20;99.90;;;;;;4982526;28;20054;-77
2022/10/19 03:31:08;;;;;;;7.50;1.42;;;12.20;99.90;;;;;;4965623;28;20162;-75
2022/10/19 03:33:36;;;;;;;10.95;1.52;;;12.10;99.90;;;;;;4984418;28;20033;-75
2022/10/19 03:36:23;;;;;;;7.57;0.95;;;12.10;99.90;;;;;;4970257;28;20038;-76
2022/10/19 03:38:50;;;;;;;8.27;2.03;;;12.10;99.90;;;;;;4987046;28;20594;-74
2022/10/19 03:41:19;;;;;;;7.45;1.00;;;12.10;99.90;;;;;;4953733;28;20041;-76
2022/10/19 03:43:45;;;;;;;9.93;1.58;;;12.10;99.90;;;;;;4965769;28;20383;-75
2022/10/19 03:46:11;;;;;;;9.02;1.23;;;12.10;99.90;;;;;;4966575;28;20059;-74
2022/10/19 03:48:37;;;;;;;9.20;1.35;;;12.20;99.90;;;;;;4986146;28;20038;-74
2022/10/19 03:51:11;;;;;;;7.32;1.05;;;12.20;99.90;;;;;;4983839;28;20057;-73
2022/10/19 03:53:39;;;;;;;10.15;2.05;;;12.20;99.90;;;;;;4970486;28;20034;-76
2022/10/19 03:56:09;;;;;;;6.47;1.40;;;12.20;99.90;;;;;;4965759;28;20119;-74
2022/10/19 03:58:36;;;;;;;5.03;0.90;;;12.20;99.90;;;;;;4989406;28;20030;-74
2022/10/19 04:01:08;;;;;;;10.60;1.73;;;12.10;99.90;;;;;;4989473;28;20070;-76
2022/10/19 04:03:33;;;;;;;3.38;0.98;;;12.20;99.90;;;;;;4980963;28;20062;-75
2022/10/19 04:06:14;;;;;;;6.88;1.20;;;12.20;99.90;;;;;;4989817;28;20026;-76
2022/10/19 04:08:40;;;;;;;7.03;1.17;;;12.20;99.90;;;;;;4986253;28;20026;-74
2022/10/19 04:11:09;;;;;;;9.05;1.10;;;12.20;99.90;;;;;;4976132;28;20030;-78
2022/10/19 04:13:35;;;;;;;5.38;0.95;;;12.20;99.90;;;;;;4985995;28;20041;-76
2022/10/19 04:16:02;;;;;;;5.40;1.38;;;12.20;99.90;;;;;;4984855;28;20049;-75
2022/10/19 04:18:29;;;;;;;4.13;1.05;;;12.20;99.90;;;;;;4971214;28;20030;-74
2022/10/19 04:21:04;;;;;;;11.52;1.48;;;12.20;99.90;;;;;;4993989;28;20050;-76
2022/10/19 04:23:34;;;;;;;7.07;1.40;;;12.20;99.90;;;;;;4991682;28;20097;-76
2022/10/19 04:26:01;;;;;;;6.63;1.40;;;12.20;99.90;;;;;;4974036;28;20030;-76
2022/10/19 04:28:27;;;;;;;8.65;1.30;;;12.20;99.90;;;;;;4994804;28;20038;-76
2022/10/19 04:30:54;;;;;;;5.07;1.05;;;12.20;99.90;;;;;;4993468;28;20042;-76
2022/10/19 04:33:20;;;;;;;8.73;1.30;;;12.20;99.90;;;;;;4995659;28;20077;-75
2022/10/19 04:35:46;;;;;;;9.70;1.67;;;12.20;99.90;;;;;;4989380;28;20050;-75
2022/10/19 04:38:12;;;;;;;11.77;1.30;;;12.10;99.90;;;;;;4979725;28;20035;-75
2022/10/19 04:40:37;;;;;;;5.43;1.33;;;12.10;99.90;;;;;;4986230;28;20098;-77
2022/10/19 04:43:04;;;;;;;6.68;1.63;;;12.10;99.90;;;;;;4976502;28;20030;-76
2022/10/19 04:45:30;;;;;;;7.20;1.30;;;12.10;99.90;;;;;;4969148;28;20081;-76
2022/10/19 04:47:56;;;;;;;9.93;1.50;;;12.10;99.90;;;;;;4969454;28;20030;-76
2022/10/19 04:50:25;;;;;;;6.85;1.40;;;12.10;99.90;;;;;;4957053;28;20034;-76
2022/10/19 04:52:51;;;;;;;8.68;1.58;;;12.10;99.90;;;;;;4975054;28;20034;-76
2022/10/19 04:55:17;;;;;;;5.70;1.13;;;12.10;99.90;;;;;;4985553;28;20367;-75
2022/10/19 04:57:43;;;;;;;8.38;1.80;;;12.10;99.90;;;;;;4988325;28;20081;-76
2022/10/19 05:00:09;;;;;;;7.95;1.38;;;12.10;99.90;;;;;;4986922;28;20026;-76
2022/10/19 05:02:40;;;;;;;11.32;1.88;;;12.10;99.90;;;;;;4985772;28;20038;-77
2022/10/19 05:05:07;;;;;;;6.82;1.40;;;12.10;99.90;;;;;;4983962;28;20031;-77
2022/10/19 05:07:32;;;;;;;9.82;1.77;;;12.10;99.90;;;;;;4967814;28;20042;-76
2022/10/19 05:09:58;;;;;;;10.65;1.95;;;12.10;99.90;;;;;;4969184;28;20038;-76
2022/10/19 05:12:25;;;;;;;14.27;2.20;;;12.10;99.90;;;;;;4967080;28;20479;-76
2022/10/19 05:14:50;;;;;;;11.57;2.38;;;12.10;99.90;;;;;;4962502;28;20060;-74
2022/10/19 05:17:17;;;;;;;6.80;1.52;;;12.10;99.90;;;;;;4963515;28;20109;-75
2022/10/19 05:19:43;;;;;;;10.10;1.90;;;12.10;99.90;;;;;;4948034;28;20117;-74
2022/10/19 05:22:09;;;;;;;8.48;2.30;;;12.10;99.90;;;;;;4952950;28;20447;-74
2022/10/19 05:24:34;;;;;;;9.23;1.65;;;12.10;99.90;;;;;;4986519;28;20033;-75
2022/10/19 05:27:00;;;;;;;10.98;2.05;;;12.10;99.90;;;;;;4988494;28;20119;-76
2022/10/19 05:29:27;;;;;;;10.95;1.75;;;12.10;99.90;;;;;;4990440;28;20105;-74
2022/10/19 05:31:53;;;;;;;8.50;1.85;;;12.10;99.90;;;;;;4985749;28;20072;-75
2022/10/19 05:34:19;;;;;;;11.80;2.45;;;12.10;99.90;;;;;;4982212;28;20033;-75
2022/10/19 05:36:45;;;;;;;9.27;2.10;;;12.10;99.90;;;;;;4966626;28;20030;-74
2022/10/19 05:39:13;;;;;;;10.82;1.95;;;12.10;99.90;;;;;;4985049;28;20034;-77
2022/10/19 05:41:41;;;;;;;9.13;1.80;;;12.10;99.90;;;;;;4982963;28;20030;-78
2022/10/19 05:44:18;;;;;;;10.40;2.10;;;12.10;99.90;;;;;;4977556;28;20035;-74
2022/10/19 05:46:45;;;;;;;5.07;1.60;;;12.10;99.90;;;;;;4977512;28;20034;-75
2022/10/19 05:49:12;;;;;;;7.72;1.80;;;12.10;99.90;;;;;;4977490;28;20034;-75
2022/10/19 05:51:39;;;;;;;11.32;2.15;;;12.10;99.90;;;;;;4957922;28;20038;-75
2022/10/19 05:54:07;;;;;;;7.55;1.98;;;12.10;99.90;;;;;;4962014;28;20165;-78
2022/10/19 05:56:33;;;;;;;8.93;1.40;;;12.10;99.90;;;;;;4957279;28;20117;-74
2022/10/19 05:59:02;;;;;;;8.32;1.50;;;12.10;99.90;;;;;;4981324;28;20030;-75
2022/10/19 06:01:29;;;;;;;11.70;1.65;;;12.10;99.90;;;;;;4980711;28;20085;-74
2022/10/19 06:03:56;;;;;;;14.50;3.05;;;12.10;99.90;;;;;;4984541;28;20593;-75
2022/10/19 06:06:23;;;;;;;9.40;1.90;;;12.10;99.90;;;;;;4967149;28;20034;-75
2022/10/19 06:08:50;;;;;;;13.48;2.35;;;12.10;99.90;;;;;;4965400;28;20030;-76
2022/10/19 06:11:22;;;;;;;10.88;2.35;;;12.10;99.90;;;;;;4984918;28;20081;-75
2022/10/19 06:13:49;;;;;;;8.43;1.80;;;12.10;99.90;;;;;;4986603;28;20026;-79
2022/10/19 06:16:17;;;;;;;6.85;1.40;;;12.10;99.90;;;;;;4970934;28;20028;-75
2022/10/19 06:18:44;;;;;;;9.05;1.90;;;13.70;99.90;;;;;;4988619;28;20060;-74
2022/10/19 06:21:16;;;;;;;8.23;1.42;;;14.00;99.90;;;;;;4992627;28;20034;-74
2022/10/19 06:23:42;;;;;;;10.98;2.35;;;13.30;99.90;;;;;;4989346;28;20080;-75
2022/10/19 06:26:12;;;;;;;8.07;1.58;;;13.00;99.90;;;;;;4975540;28;20030;-74
2022/10/19 06:28:39;;;;;;;23.52;2.40;;;12.70;99.90;;;;;;4985406;28;20050;-74
2022/10/19 06:31:05;;;;;;;9.93;2.65;;;12.60;99.90;;;;;;4992484;28;20116;-74
2022/10/19 06:33:31;;;;;;;9.48;2.05;;;12.50;99.90;;;;;;4988684;28;20405;-75
2022/10/19 06:36:15;;;;;;;9.15;1.88;;;12.40;99.90;;;;;;4986210;28;20018;-74
2022/10/19 06:38:41;;;;;;;8.30;1.75;;;12.40;99.90;;;;;;4988989;28;20102;-76
2022/10/19 06:41:09;;;;;;;11.75;1.98;;;12.40;99.90;;;;;;4978111;28;20062;-77
2022/10/19 06:43:35;;;;;;;12.10;2.35;;;12.30;99.90;;;;;;4972692;28;20042;-75
2022/10/19 06:46:06;;;;;;;12.20;2.10;;;12.30;99.90;;;;;;4987722;28;20034;-75
2022/10/19 06:48:32;;;;;;;9.02;1.63;;;12.30;99.90;;;;;;4974964;28;20037;-75
2022/10/19 06:51:00;;;;;;;10.50;1.92;;;12.30;99.90;;;;;;4971267;28;20042;-76
2022/10/19 06:53:27;;;;;;;10.25;2.60;;;12.30;99.90;;;;;;4993401;28;20030;-74
2022/10/19 06:55:57;;;;;;;8.77;2.00;;;12.30;99.90;;;;;;4972523;28;20406;-76
2022/10/19 06:58:24;;;;;;;10.60;2.40;;;12.40;99.90;;;;;;4973522;28;20079;-77
2022/10/19 07:01:00;;;;;;;13.70;2.40;;;12.40;99.90;;;;;;4988251;28;20037;-75
2022/10/19 07:03:28;;;;;;;12.70;2.00;;;12.40;99.90;;;;;;4986115;28;20109;-75
2022/10/19 07:06:04;;;;;;;11.48;1.95;;;12.40;99.90;;;;;;4987462;28;20065;-74
2022/10/19 07:08:31;;;;;;;10.82;1.80;;;12.40;99.90;;;;;;4990209;28;20037;-75
2022/10/19 07:11:02;;;;;;;8.20;1.63;;;12.50;99.90;;;;;;4988631;28;20118;-75
2022/10/19 07:13:30;;;;;;;;;;;12.60;99.90;;;;;;4972154;28;20454;-75
2022/10/19 07:16:02;;;;;;;9.95;1.80;;;12.60;99.90;;;;;;4995916;28;19973;-77
2022/10/19 07:18:28;;;;;;;12.43;2.60;;;12.60;99.90;;;;;;4995160;28;20096;-78
2022/10/19 07:20:55;;;;;;;9.27;2.00;;;12.50;99.90;;;;;;4985154;28;20494;-76
2022/10/19 07:23:23;;;;;;;15.35;2.08;;;12.50;99.90;;;;;;4983953;28;20114;-77
2022/10/19 07:25:51;;;;;;;8.45;1.65;;;12.50;99.90;;;;;;4988960;28;20453;-77
2022/10/19 07:28:17;;;;;;;15.98;2.63;;;12.40;99.90;;;;;;4954474;28;20557;-75
2022/10/19 07:30:45;;;;;;;11.90;2.28;;;12.40;99.90;;;;;;4992158;28;20118;-76
2022/10/19 07:33:11;;;;;;;10.70;2.33;;;12.40;99.90;;;;;;4987261;28;20062;-75
2022/10/19 07:35:38;;;;;;;12.07;2.42;;;12.30;99.90;;;;;;4985309;28;20030;-75
2022/10/19 07:38:04;;;;;;;12.48;2.67;;;12.30;99.90;;;;;;4984951;28;20037;-77
2022/10/19 07:40:30;;;;;;;7.03;1.50;;;12.30;99.90;;;;;;4973606;28;20021;-75
2022/10/19 07:42:57;;;;;;;12.85;2.22;;;12.30;99.90;;;;;;4995793;28;20029;-75
2022/10/19 07:45:24;;;;;;;11.35;1.80;;;12.30;99.90;;;;;;4974268;28;20027;-77
2022/10/19 07:47:49;;;;;;;12.98;2.38;;;12.30;99.90;;;;;;4970558;28;20578;-76
2022/10/19 07:50:15;;;;;;;7.43;2.10;;;12.30;99.90;;;;;;4994949;28;20125;-77
2022/10/19 07:52:41;;;;;;;9.23;1.67;;;12.30;99.90;;;;;;4992473;28;20030;-76
2022/10/19 07:55:07;;;;;;;4.13;1.50;;;12.30;99.90;;;;;;4967131;28;20530;-75
2022/10/19 07:57:34;;;;;;;12.63;2.22;;;12.30;99.90;;;;;;4991164;28;20029;-75
2022/10/19 08:00:00;;;;;;;10.05;1.95;;;12.40;99.90;;;;;;4978132;28;20204;-76
2022/10/19 08:02:26;;;;;;;7.97;1.60;;;12.40;99.90;;;;;;4974353;28;20022;-77
2022/10/19 08:04:52;;;;;;;7.80;1.40;;;12.40;99.90;;;;;;4973035;28;20026;-76
2022/10/19 08:07:18;;;;;;;10.07;1.88;;;12.40;99.90;;;;;;4990794;28;20030;-77
2022/10/19 08:09:44;;;;;;;9.43;1.80;;;12.40;99.90;;;;;;4974996;28;20033;-74
2022/10/19 08:12:12;;;;;;;11.43;1.95;;;12.40;99.90;;;;;;4983557;28;20033;-75
2022/10/19 08:14:41;;;;;;;7.03;1.52;;;12.40;99.90;;;;;;4991245;28;20111;-75
2022/10/19 08:17:10;;;;;;;6.72;1.60;;;12.40;99.90;;;;;;4977429;28;20486;-75
2022/10/19 08:19:40;;;;;;;11.20;2.13;;;12.40;99.90;;;;;;4989239;28;20356;-76
2022/10/19 08:22:05;;;;;;;7.57;2.10;;;12.40;99.90;;;;;;5001018;28;20406;-74
2022/10/19 08:24:31;;;;;;;9.15;2.25;;;12.40;99.90;;;;;;4974360;28;20030;-75
2022/10/19 08:27:01;;;;;;;9.70;1.90;;;12.50;99.90;;;;;;4978136;28;20032;-73
2022/10/19 08:29:27;;;;;;;9.30;1.92;;;12.50;99.90;;;;;;4992570;28;20026;-78
2022/10/19 08:31:53;;;;;;;15.40;1.80;;;12.50;99.90;;;;;;4978001;28;20053;-76
2022/10/19 08:34:19;;;;;;;18.13;2.38;;;12.60;99.90;;;;;;4999237;28;20094;-79
2022/10/19 08:36:45;;;;;;;14.30;2.38;;;12.60;99.90;;;;;;4971674;28;20506;-75
2022/10/19 08:39:12;;;;;;;7.20;1.50;;;12.50;99.90;;;;;;4992107;28;20030;-75
2022/10/19 08:42:02;;;;;;;9.48;2.03;;;12.50;99.90;;;;;;4995904;28;20048;-74
2022/10/19 08:44:53;;;;;;;10.07;1.35;;;12.50;99.90;;;;;;4997188;28;20371;-75
2022/10/19 08:47:24;;;;;;;6.85;1.40;;;12.60;99.90;;;;;;4995911;28;20026;-75
2022/10/19 08:49:51;;;;;;;10.45;1.30;;;12.50;99.90;;;;;;4977080;28;20052;-80
2022/10/19 08:52:32;;;;;;;4.90;1.63;;;12.50;99.90;;;;;;4976118;28;20033;-75
2022/10/19 08:55:01;;;;;;;12.27;1.40;;;12.50;99.90;;;;;;5000144;28;20041;-77
2022/10/19 08:57:33;;;;;;;7.28;1.48;;;12.50;99.90;;;;;;4996502;28;20097;-76
2022/10/19 09:00:19;;;;;;;6.50;1.40;;;12.50;99.90;;;;;;4986136;28;20039;-76
2022/10/19 09:03:01;;;;;;;12.52;3.15;;;12.50;99.90;;;;;;4992608;28;20549;-74
2022/10/19 09:05:36;;;;;;;10.77;2.22;;;12.60;99.90;;;;;;4979509;28;20122;-75
2022/10/19 09:08:02;;;;;;;9.30;1.77;;;12.70;99.90;;;;;;4995513;28;20394;-77
2022/10/19 09:10:36;;;;;;;7.72;1.60;;;12.80;99.90;;;;;;4990955;28;20030;-77
2022/10/19 09:13:24;;;;;;;5.88;1.33;;;12.80;99.90;;;;;;4990614;28;20531;-76
2022/10/19 09:15:54;;;;;;;8.63;1.73;;;13.00;99.90;;;;;;4985396;28;20049;-78
2022/10/19 09:18:23;;;;;;;8.50;1.70;;;13.00;99.90;;;;;;4998952;28;20075;-76
2022/10/19 09:20:55;;;;;;;9.23;1.92;;;12.90;99.90;;;;;;4992441;28;20027;-76
2022/10/19 09:23:38;;;;;;;6.35;1.50;;;12.90;99.90;;;;;;4992405;28;20038;-77
2022/10/19 09:26:13;;;;;;;10.10;2.03;;;13.10;99.90;;;;;;4958731;28;20034;-76
2022/10/19 09:29:07;;;;;;;10.90;2.00;;;13.10;99.90;;;;;;4987548;28;20065;-77
2022/10/19 09:31:37;;;;;;;12.43;2.08;;;13.10;99.90;;;;;;4984385;28;20054;-76
2022/10/19 09:34:14;;;;;;;8.45;1.67;;;13.10;99.90;;;;;;4985781;28;20038;-75
2022/10/19 09:36:43;;;;;;;7.72;1.55;;;13.30;99.90;;;;;;4961208;28;20072;-75
2022/10/19 09:39:13;;;;;;;10.30;1.48;;;13.40;99.90;;;;;;4995355;28;20130;-76
2022/10/19 09:41:55;;;;;;;8.40;1.55;;;13.50;99.90;;;;;;4995079;28;20029;-76
2022/10/19 09:44:22;;;;;;;;;;;13.50;99.90;;;;;;4992801;28;20054;-76
2022/10/19 09:46:53;;;;;;;8.25;1.65;;;13.40;99.90;;;;;;4969219;28;19941;-75
2022/10/19 09:49:37;;;;;;;11.75;1.90;;;13.40;99.90;;;;;;4987765;28;20550;-77
2022/10/19 09:52:03;;;;;;;6.82;1.77;;;13.30;99.90;;;;;;4978876;28;20029;-75
2022/10/19 09:54:38;;;;;;;6.38;1.88;;;13.70;99.90;;;;;;4993878;28;20074;-76
2022/10/19 09:57:04;;;;;;;10.45;1.83;;;14.60;99.90;;;;;;4995705;28;20041;-75
2022/10/19 09:59:34;;;;;;;6.72;1.45;;;15.60;99.90;;;;;;4993526;28;20105;-77
2022/10/19 10:02:32;;;;;;;8.20;1.83;;;15.80;99.90;;;;;;4995318;28;20026;-73
2022/10/19 10:05:13;;;;;;;9.70;2.08;;;15.60;99.90;;;;;;4991646;28;20037;-76
2022/10/19 10:07:39;;;;;;;;;;;15.30;99.90;;;;;;4988967;28;20038;-76
2022/10/19 10:10:21;;;;;;;9.40;1.80;;;14.50;99.90;;;;;;4991172;28;19964;-78
2022/10/19 10:12:48;;;;;;;7.13;1.90;;;14.20;99.90;;;;;;4990513;28;22583;-77
2022/10/19 10:15:19;;;;;;;7.40;1.70;;;14.00;99.90;;;;;;4978563;28;20034;-77
2022/10/19 10:17:47;;;;;;;9.98;2.22;;;13.90;99.90;;;;;;4977409;28;20401;-83
2022/10/19 10:20:31;;;;;;;6.70;1.83;;;13.80;99.90;;;;;;4972243;28;20099;-76
2022/10/19 10:22:58;;;;;;;7.15;1.63;;;13.70;99.90;;;;;;4989932;28;20474;-77
2022/10/19 10:25:27;;;;;;;4.53;1.27;;;13.70;99.90;;;;;;4985028;28;20037;-75
2022/10/19 10:28:02;;;;;;;10.63;2.00;;;13.70;99.90;;;;;;4989866;28;20030;-75
2022/10/19 10:30:34;;;;;;;6.97;1.63;;;14.00;99.90;;;;;;4990680;28;20026;-75
2022/10/19 10:33:00;;;;;;;8.60;1.70;;;14.40;99.90;;;;;;4989837;28;20042;-75
2022/10/19 10:35:33;;;;;;;4.55;1.30;;;14.90;99.90;;;;;;4969085;28;20040;-75
2022/10/19 10:38:12;;;;;;;4.07;1.30;;;15.40;99.90;;;;;;4991350;28;20018;-76
2022/10/19 10:40:38;;;;;;;4.82;1.25;;;16.00;99.90;;;;;;4975855;28;20486;-77
2022/10/19 10:43:14;;;;;;;6.43;1.55;;;15.80;99.90;;;;;;4973828;28;20030;-75
2022/10/19 10:45:45;;;;;;;8.75;1.27;;;16.30;99.90;;;;;;4966184;28;20703;-77
2022/10/19 10:48:27;;;;;;;7.15;1.63;;;17.20;99.90;;;;;;4998173;28;20061;-78
2022/10/19 10:50:54;;;;;;;6.53;1.52;;;17.10;99.20;;;;;;4990575;28;20045;-76
2022/10/19 10:53:38;;;;;;;3.15;1.08;;;17.50;97.80;;;;;;4994400;28;20034;-82
2022/10/19 10:56:20;;;;;;;3.10;0.90;;;18.90;97.60;;;;;;4986085;28;20092;-74
2022/10/19 10:59:14;;;;;;;7.32;1.40;;;18.90;97.40;;;;;;4992421;28;20049;-74
2022/10/19 11:01:48;;;;;;;7.72;1.83;;;17.50;97.80;;;;;;4987073;28;20042;-74
2022/10/19 11:04:21;;;;;;;9.57;1.80;;;16.50;99.90;;;;;;4993879;28;20124;-74
2022/10/19 11:06:55;;;;;;;5.40;1.50;;;16.10;99.90;;;;;;4989545;28;20035;-75
2022/10/19 11:09:24;;;;;;;8.05;1.48;;;15.60;99.90;;;;;;4989086;28;20026;-75
2022/10/19 11:11:54;;;;;;;11.05;2.35;;;15.40;99.90;;;;;;4991863;28;20034;-74
2022/10/19 11:14:37;;;;;;;6.80;1.43;;;15.30;99.90;;;;;;4989286;28;20026;-74
2022/10/19 11:17:15;;;;;;;6.47;1.60;;;15.20;99.90;;;;;;4985968;28;20735;-74
2022/10/19 11:19:44;;;;;;;5.15;1.08;;;15.10;99.90;;;;;;4981519;28;20062;-72
2022/10/19 11:22:27;;;;;;;5.40;1.67;;;14.90;99.90;;;;;;4980519;28;20109;-73
2022/10/19 11:25:24;;;;;;;6.03;1.33;;;14.70;99.90;;;;;;4986718;28;20038;-76
2022/10/19 11:28:47;;;;;;;5.75;1.45;;;14.70;99.90;;;;;;4986757;28;20130;-77
2022/10/19 11:31:29;;;;;;;7.72;1.90;;;14.90;99.90;;;;;;4912001;29;20057;-76
2022/10/19 11:34:21;;;;;;;7.03;1.95;;;15.10;99.90;;;;;;4901240;29;20081;-77
2022/10/19 11:37:12;;;;;;;4.97;1.15;;;15.00;99.90;;;;;;4950759;28;20118;-75
2022/10/19 11:39:46;;;;;;;;;;;14.80;99.90;;;;;;4960269;28;20151;-76
2022/10/19 11:42:22;;;;;;;8.48;1.50;;;14.70;99.90;;;;;;4982054;28;19990;-75
2022/10/19 11:45:11;;;;;;;6.65;1.55;;;14.50;99.90;;;;;;4994005;28;20026;-76
2022/10/19 11:47:58;;;;;;;5.82;1.38;;;14.10;99.90;;;;;;4987932;28;20030;-78
2022/10/19 11:50:34;;;;;;;7.47;1.10;;;13.90;99.90;;;;;;5004185;28;20094;-76
2022/10/19 11:53:21;;;;;;;5.97;1.55;;;13.90;99.90;;;;;;4978390;28;20027;-77
2022/10/19 11:56:00;;;;;;;6.25;1.42;;;13.80;99.90;;;;;;4991580;28;20033;-78
2022/10/19 11:58:47;;;;;;;9.82;1.77;;;13.80;99.90;;;;;;4998229;28;20054;-79
2022/10/19 12:01:42;;;;;;;7.65;1.20;;;13.70;99.90;;;;;;4972891;28;20029;-77
2022/10/19 12:04:43;;;;;;;6.30;1.70;;;13.70;99.90;;;;;;4990865;28;20038;-77
2022/10/19 12:07:39;;;;;;;8.63;1.65;;;13.60;99.90;;;;;;4979671;28;20040;-77
2022/10/19 12:10:21;;;;;;;6.32;1.42;;;13.60;99.90;;;;;;4990419;28;20105;-78
2022/10/19 12:12:55;;;;;;;8.45;1.35;;;13.50;99.90;;;;;;4991697;28;20078;-79
2022/10/19 12:15:32;;;;;;;5.35;1.50;;;13.60;99.90;;;;;;4957273;28;20097;-79
2022/10/19 12:18:28;;;;;;;5.28;1.00;;;13.70;99.90;;;;;;4995641;28;20030;-79
2022/10/19 12:20:57;;;;;;;4.07;1.00;;;13.70;99.90;;;;;;4958691;28;20038;-77
2022/10/19 12:23:34;;;;;;;26.48;13.18;;;13.70;99.90;;;;;;4981313;28;20040;-77
2022/10/19 12:26:04;;;;;;;557.22;391.00;;;13.70;99.90;;;;;;4997846;28;20052;-77
2022/10/19 12:28:34;;;;;;;272.25;176.35;;;13.60;99.90;;;;;;4963748;28;20018;-78
2022/10/19 12:31:01;;;;;;;8.90;2.15;;;13.60;99.90;;;;;;4977908;28;20061;-76
2022/10/19 12:34:02;;;;;;;6.10;2.30;;;13.50;99.90;;;;;;4990726;28;20022;-78
2022/10/19 12:36:55;;;;;;;3.55;1.17;;;13.50;99.90;;;;;;4986533;28;20033;-77
2022/10/19 12:39:45;;;;;;;4.90;1.10;;;13.50;99.90;;;;;;4989222;28;20019;-75
2022/10/19 12:42:40;;;;;;;7.30;1.75;;;13.40;99.90;;;;;;4971169;28;20137;-74
2022/10/19 12:45:12;;;;;;;5.15;1.50;;;13.40;99.90;;;;;;4941947;28;20525;-76
2022/10/19 12:47:38;;;;;;;3.58;1.05;;;13.40;99.90;;;;;;4985693;28;20122;-75
2022/10/19 12:50:05;;;;;;;5.32;1.35;;;13.40;99.90;;;;;;4999683;28;20490;-74
2022/10/19 12:52:48;;;;;;;2.72;1.00;;;13.30;99.90;;;;;;4998421;28;20109;-75
2022/10/19 12:55:13;;;;;;;7.15;1.35;;;13.40;99.90;;;;;;4994180;28;20023;-74
2022/10/19 12:57:42;;;;;;;4.03;1.70;;;13.30;99.90;;;;;;4997226;28;20077;-75
2022/10/19 13:00:23;;;;;;;4.63;1.10;;;13.40;99.90;;;;;;4998292;28;20026;-75
2022/10/19 13:03:21;;;;;;;6.47;1.58;;;13.40;99.90;;;;;;4972835;28;20030;-75
2022/10/19 13:05:58;;;;;;;3.28;0.82;;;13.40;99.90;;;;;;4987468;28;20397;-75
2022/10/19 13:08:29;;;;;;;1.75;0.85;;;13.50;99.90;;;;;;4981364;28;20062;-75
2022/10/19 13:11:14;;;;;;;3.63;1.17;;;13.60;99.90;;;;;;4991347;28;20092;-75